Portada
METAR-TAF:

METAR-TAF

Aeropuertos :

Aeropuerto de Perpiñán-Rivesaltes

Perpiñán, Francia

latitud: 42-44N, longitud: 002-52E, altitud: 43 m

Observación

El informe se hizo hace 19 minutos, a las 23:00 UTC
Viento 2 kt del este
Temperatura 11°C
Humedad 87%
Presión 1017 hPa
Visibilidad: 2600 m
lluvia, neblina

METAR: LFMP 312300Z AUTO 08002KT 2600 RA BR FEW003/// BKN009/// OVC014/// ///TCU 11/09 Q1017

Hora: 01:19 (23:19 UTC)


TAF: falta

Observaciones y pronósticos meteorológicos de más de 4000 aeropuertos (mensajes METAR y TAF).

Los puntos amarillos y rojos representan las estaciones disponibles.

Ponga el ratón en el punto deseado para ver el nombre de la estación.

Haga clic para ver las observaciones y los pronósticos meteorológicos.

Para cambiar el mapa : haga clic en los botones verdes con una cruz de color negro para hacer un zoom, en el botón verde con un guión para alejar o en las flechas verdes para mapas adyacentes.


METAR-TAF: